createdAt,value
2022-08-20T00:01:02.175Z,75.13
2022-08-20T00:03:33.356Z,75.28
2022-08-20T00:06:03.635Z,74.97
2022-08-20T00:08:32.135Z,75.23
2022-08-20T00:11:02.586Z,75.33
2022-08-20T00:13:34.063Z,75.49
2022-08-20T00:16:02.515Z,75.55
2022-08-20T00:18:30.815Z,75.98
2022-08-20T00:20:59.022Z,76.38
2022-08-20T00:23:26.835Z,76.82
2022-08-20T00:25:54.943Z,76.34
2022-08-20T00:28:23.956Z,76.73
2022-08-20T00:30:51.971Z,77.14
2022-08-20T00:33:22.277Z,77.29
2022-08-20T00:35:53.152Z,77.28
2022-08-20T00:38:21.601Z,77.45
2022-08-20T00:40:52.140Z,77.30
2022-08-20T00:43:34.222Z,77.53
2022-08-20T00:46:06.554Z,77.97
2022-08-20T00:48:36.446Z,78.35
2022-08-20T00:51:07.857Z,77.76
2022-08-20T00:53:36.986Z,77.93
2022-08-20T00:56:07.077Z,77.87
2022-08-20T00:58:38.253Z,77.77
2022-08-20T01:01:07.700Z,77.21
2022-08-20T01:03:35.613Z,77.45
2022-08-20T01:06:03.420Z,77.39
2022-08-20T01:08:31.247Z,77.25
2022-08-20T01:11:15.751Z,77.59
2022-08-20T01:13:46.764Z,77.79
2022-08-20T01:16:22.077Z,77.42
2022-08-20T01:18:51.290Z,77.76
2022-08-20T01:21:23.771Z,77.89
2022-08-20T01:23:57.299Z,78.17
2022-08-20T01:26:30.121Z,78.09
2022-08-20T01:29:01.724Z,78.07
2022-08-20T01:31:31.432Z,78.19
2022-08-20T01:34:02.043Z,78.42
2022-08-20T01:36:32.978Z,78.48
2022-08-20T01:39:01.964Z,79.04
2022-08-20T01:41:56.891Z,79.09
2022-08-20T01:44:26.290Z,79.61
2022-08-20T01:46:57.595Z,79.30
2022-08-20T01:49:35.113Z,79.73
2022-08-20T01:52:09.250Z,80.06
2022-08-20T01:54:37.250Z,79.92
2022-08-20T01:57:11.846Z,80.27
2022-08-20T01:59:39.867Z,81.00
2022-08-20T02:02:08.543Z,81.21
2022-08-20T02:04:36.783Z,81.39
2022-08-20T02:07:06.990Z,81.96
2022-08-20T02:09:39.241Z,81.97
2022-08-20T02:12:10.914Z,82.10
2022-08-20T02:14:43.132Z,82.43
2022-08-20T02:17:12.251Z,82.70
2022-08-20T02:19:43.146Z,82.70
2022-08-20T02:22:21.256Z,82.89
2022-08-20T02:24:49.243Z,83.08
2022-08-20T02:27:18.886Z,83.48
2022-08-20T02:29:47.199Z,83.30
2022-08-20T02:32:24.375Z,83.85
2022-08-20T02:35:03.754Z,84.11
2022-08-20T02:37:31.997Z,84.26
2022-08-20T02:39:59.974Z,84.29
2022-08-20T02:42:29.155Z,84.58
2022-08-20T02:44:58.665Z,84.91
2022-08-20T02:47:27.680Z,84.99
2022-08-20T02:49:56.366Z,85.16
2022-08-20T02:52:24.111Z,85.32
2022-08-20T02:54:52.202Z,85.70
2022-08-20T02:57:21.411Z,85.97
2022-08-20T02:59:52.330Z,85.92
2022-08-20T03:02:20.134Z,86.45
2022-08-20T03:04:47.644Z,86.15
2022-08-20T03:07:15.457Z,86.19
2022-08-20T03:09:42.994Z,86.10
2022-08-20T03:12:10.976Z,86.30
2022-08-20T03:14:39.191Z,86.67
2022-08-20T03:17:08.229Z,86.73
2022-08-20T03:19:36.001Z,86.46
2022-08-20T03:22:03.722Z,86.82
2022-08-20T03:24:31.544Z,86.84
2022-08-20T03:26:59.844Z,86.69
2022-08-20T03:29:27.552Z,86.68
2022-08-20T03:31:55.067Z,86.90
2022-08-20T03:34:24.174Z,86.95
2022-08-20T03:36:51.946Z,87.16
2022-08-20T03:39:19.504Z,87.12
2022-08-20T03:41:47.606Z,87.43
2022-08-20T03:44:15.421Z,87.25
2022-08-20T03:46:43.051Z,87.41
2022-08-20T03:49:11.458Z,87.27
2022-08-20T03:51:57.475Z,87.37
2022-08-20T03:54:29.127Z,87.56
2022-08-20T03:57:00.209Z,87.18
2022-08-20T03:59:28.045Z,87.06
2022-08-20T04:01:56.232Z,87.55
2022-08-20T04:04:24.001Z,87.90
2022-08-20T04:06:52.947Z,87.60
2022-08-20T04:09:20.628Z,87.64
2022-08-20T04:11:48.238Z,87.37
2022-08-20T04:14:18.430Z,87.22
2022-08-20T04:16:48.917Z,86.99
2022-08-20T04:19:17.180Z,86.99
2022-08-20T04:21:48.505Z,86.85
2022-08-20T04:24:22.614Z,86.77
2022-08-20T04:26:59.705Z,87.02
2022-08-20T04:29:32.297Z,87.04
2022-08-20T04:32:03.336Z,86.68
2022-08-20T04:34:38.329Z,86.57
2022-08-20T04:37:16.782Z,86.97
2022-08-20T04:40:06.649Z,86.84
2022-08-20T04:42:35.575Z,87.23
2022-08-20T04:45:03.566Z,87.34
2022-08-20T04:47:34.964Z,87.07
2022-08-20T04:50:03.022Z,86.78
2022-08-20T04:52:32.930Z,86.14
2022-08-20T04:55:02.128Z,85.64
2022-08-20T04:57:29.844Z,85.65
2022-08-20T04:59:59.505Z,85.28
2022-08-20T05:02:27.364Z,84.56
2022-08-20T05:04:54.980Z,84.69
2022-08-20T05:07:22.785Z,84.13
2022-08-20T05:09:50.338Z,83.82
2022-08-20T05:12:19.711Z,83.35
2022-08-20T05:14:47.816Z,83.34
2022-08-20T05:17:17.727Z,82.44
2022-08-20T05:19:46.545Z,81.82
2022-08-20T05:22:14.410Z,81.35
2022-08-20T05:24:42.164Z,80.98
2022-08-20T05:27:09.694Z,80.58
2022-08-20T05:29:54.789Z,79.53
2022-08-20T05:32:23.102Z,78.97
2022-08-20T05:34:50.887Z,78.34
2022-08-20T05:37:18.681Z,77.78
2022-08-20T05:39:47.168Z,76.56
2022-08-20T05:42:14.949Z,76.84
2022-08-20T05:44:42.546Z,76.39
2022-08-20T05:47:11.635Z,77.02
2022-08-20T05:49:40.084Z,76.15
2022-08-20T05:52:07.783Z,76.47
2022-08-20T05:54:37.895Z,76.64
2022-08-20T05:57:06.019Z,75.52
2022-08-20T05:59:36.806Z,75.15
2022-08-20T06:02:25.424Z,74.67
2022-08-20T06:04:56.236Z,73.66
2022-08-20T06:07:24.647Z,72.14
2022-08-20T06:09:52.335Z,71.77
2022-08-20T06:12:19.967Z,71.48
2022-08-20T06:14:48.378Z,70.63
2022-08-20T06:17:19.396Z,71.39
2022-08-20T06:19:50.100Z,70.83
2022-08-20T06:22:26.465Z,71.50
2022-08-20T06:24:55.558Z,71.29
2022-08-20T06:27:23.638Z,71.08
2022-08-20T06:29:52.245Z,71.14
2022-08-20T06:32:28.876Z,71.25
2022-08-20T06:35:03.733Z,71.31
2022-08-20T06:37:36.518Z,69.93
2022-08-20T06:40:09.538Z,69.52
2022-08-20T06:42:37.365Z,69.74
2022-08-20T06:45:05.869Z,69.17
2022-08-20T06:47:34.921Z,68.65
2022-08-20T06:50:02.786Z,68.23
2022-08-20T06:52:51.598Z,66.87
2022-08-20T06:55:19.760Z,66.69
2022-08-20T06:57:48.247Z,66.33
2022-08-20T07:00:18.880Z,65.54
2022-08-20T07:02:48.105Z,65.36
2022-08-20T07:05:16.987Z,65.17
2022-08-20T07:07:46.166Z,65.56
2022-08-20T07:10:15.529Z,66.18
2022-08-20T07:12:46.736Z,66.69
2022-08-20T07:15:15.450Z,66.52
2022-08-20T07:17:43.975Z,67.09
2022-08-20T07:20:15.333Z,67.41
2022-08-20T07:22:43.592Z,68.12
2022-08-20T07:25:15.405Z,67.31
2022-08-20T07:27:45.296Z,67.70
2022-08-20T07:30:33.709Z,67.27
2022-08-20T07:33:21.623Z,65.85
2022-08-20T07:35:50.028Z,65.68
2022-08-20T07:38:23.946Z,63.76
2022-08-20T07:40:52.953Z,62.93
2022-08-20T07:43:23.126Z,62.58
2022-08-20T07:45:52.227Z,61.96
2022-08-20T07:48:27.988Z,60.75
2022-08-20T07:51:00.800Z,54.33
2022-08-20T07:53:32.374Z,49.90
2022-08-20T07:56:03.425Z,50.99
2022-08-20T07:58:33.430Z,51.92
2022-08-20T08:01:01.682Z,53.48
2022-08-20T08:03:39.898Z,50.33
2022-08-20T08:07:08.887Z,44.40
2022-08-20T08:09:37.181Z,43.99
2022-08-20T08:12:05.593Z,43.45
2022-08-20T08:14:35.703Z,41.45
2022-08-20T08:17:05.747Z,41.04
2022-08-20T08:19:38.862Z,41.70
2022-08-20T08:22:11.435Z,43.68
2022-08-20T08:24:39.446Z,45.07
2022-08-20T08:27:08.158Z,45.32
2022-08-20T08:29:37.485Z,46.04
2022-08-20T08:32:07.382Z,43.35
2022-08-20T08:34:37.391Z,39.67
2022-08-20T08:37:05.872Z,39.67
2022-08-20T08:39:35.038Z,36.46
2022-08-20T08:42:22.025Z,32.98
2022-08-20T08:44:51.298Z,29.03
2022-08-20T08:47:25.155Z,25.56
2022-08-20T08:49:53.063Z,24.65
2022-08-20T08:52:24.867Z,24.82
2022-08-20T08:54:57.978Z,22.85
2022-08-20T08:57:26.204Z,26.08
2022-08-20T09:00:03.950Z,26.24
2022-08-20T09:02:33.969Z,27.09
2022-08-20T09:05:05.125Z,26.41
2022-08-20T09:07:34.635Z,25.24
2022-08-20T09:10:03.245Z,24.55
2022-08-20T09:12:30.941Z,22.67
2022-08-20T09:15:00.059Z,21.68
2022-08-20T09:17:27.753Z,22.10
2022-08-20T09:19:55.432Z,24.73
2022-08-20T09:22:25.921Z,28.44
2022-08-20T09:24:53.710Z,30.37
2022-08-20T09:27:22.348Z,34.16
2022-08-20T09:29:50.232Z,37.23
2022-08-20T09:32:22.845Z,39.60
2022-08-20T09:34:56.059Z,41.64
2022-08-20T09:37:25.290Z,43.25
2022-08-20T09:39:53.228Z,44.41
2022-08-20T09:42:25.004Z,45.00
2022-08-20T09:44:53.016Z,46.44
2022-08-20T09:47:22.409Z,46.43
2022-08-20T09:49:50.121Z,45.02
2022-08-20T09:52:22.832Z,38.89
2022-08-20T09:54:51.842Z,32.31
2022-08-20T09:57:20.253Z,31.06
2022-08-20T09:59:52.866Z,31.49
2022-08-20T10:02:21.986Z,34.96
2022-08-20T10:04:49.786Z,41.39
2022-08-20T10:07:17.605Z,36.66
2022-08-20T10:09:45.508Z,37.97
2022-08-20T10:12:13.425Z,40.46
2022-08-20T10:14:41.231Z,41.79
2022-08-20T10:17:09.054Z,43.24
2022-08-20T10:19:38.336Z,42.10
2022-08-20T10:22:06.788Z,36.60
2022-08-20T10:24:35.077Z,30.58
2022-08-20T10:27:03.687Z,26.90
2022-08-20T10:29:32.004Z,24.91
2022-08-20T10:32:12.041Z,22.78
2022-08-20T10:34:42.239Z,25.55
2022-08-20T10:37:11.035Z,31.34
2022-08-20T10:39:38.836Z,33.86
2022-08-20T10:42:06.994Z,36.15
2022-08-20T10:44:34.767Z,37.46
2022-08-20T10:47:14.785Z,37.21
2022-08-20T10:49:43.986Z,37.70
2022-08-20T10:52:11.996Z,37.36
2022-08-20T10:54:42.112Z,38.41
2022-08-20T10:57:13.925Z,38.77
2022-08-20T10:59:42.816Z,40.07
2022-08-20T11:02:10.712Z,41.46
2022-08-20T11:04:38.463Z,43.48
2022-08-20T11:07:18.562Z,44.11
2022-08-20T11:09:48.080Z,42.84
2022-08-20T11:12:16.191Z,37.63
2022-08-20T11:14:44.064Z,32.80
2022-08-20T11:17:12.604Z,32.29
2022-08-20T11:19:41.719Z,27.68
2022-08-20T11:22:09.912Z,24.86
2022-08-20T11:24:39.637Z,25.22
2022-08-20T11:27:08.752Z,29.04
2022-08-20T11:29:37.007Z,32.55
2022-08-20T11:32:05.717Z,35.23
2022-08-20T11:34:34.890Z,37.23
2022-08-20T11:37:02.795Z,38.65
2022-08-20T11:39:30.707Z,39.90
2022-08-20T11:41:59.823Z,41.08
2022-08-20T11:44:27.625Z,41.73
2022-08-20T11:46:58.142Z,43.00
2022-08-20T11:49:25.987Z,43.19
2022-08-20T11:51:53.759Z,43.17
2022-08-20T11:54:21.574Z,39.42
2022-08-20T11:56:49.778Z,40.19
2022-08-20T11:59:19.089Z,41.43
2022-08-20T12:02:02.243Z,37.30
2022-08-20T12:04:33.517Z,29.45
2022-08-20T12:07:09.259Z,24.93
2022-08-20T12:09:37.037Z,24.25
2022-08-20T12:12:09.859Z,23.02
2022-08-20T12:14:39.359Z,27.32
2022-08-20T12:17:11.081Z,32.21
2022-08-20T12:19:39.985Z,35.42
2022-08-20T12:22:20.387Z,37.80
2022-08-20T12:24:52.904Z,39.54
2022-08-20T12:27:23.413Z,40.49
2022-08-20T12:29:54.222Z,35.69
2022-08-20T12:32:22.058Z,36.28
2022-08-20T12:34:50.444Z,38.55
2022-08-20T12:37:20.655Z,40.58
2022-08-20T12:39:51.493Z,41.66
2022-08-20T12:42:19.979Z,42.69
2022-08-20T12:44:48.499Z,43.35
2022-08-20T12:47:20.158Z,42.58
2022-08-20T12:49:51.522Z,39.86
2022-08-20T12:52:20.922Z,38.69
2022-08-20T12:54:49.447Z,39.00
2022-08-20T12:57:18.047Z,40.27
2022-08-20T12:59:45.854Z,42.39
2022-08-20T13:02:14.280Z,42.94
2022-08-20T13:04:48.177Z,43.20
2022-08-20T13:07:16.791Z,43.13
2022-08-20T13:09:45.497Z,40.69
2022-08-20T13:12:14.209Z,38.12
2022-08-20T13:14:43.027Z,33.44
2022-08-20T13:17:12.250Z,30.40
2022-08-20T13:19:40.740Z,30.70
2022-08-20T13:22:10.951Z,31.52
2022-08-20T13:24:39.086Z,32.11
2022-08-20T13:27:08.379Z,33.24
2022-08-20T13:29:38.884Z,33.14
2022-08-20T13:32:07.043Z,30.95
2022-08-20T13:34:34.806Z,26.04
2022-08-20T13:37:02.619Z,22.79
2022-08-20T13:39:31.733Z,23.89
2022-08-20T13:41:59.551Z,25.52
2022-08-20T13:44:27.250Z,25.38
2022-08-20T13:47:00.660Z,23.15
2022-08-20T13:49:34.389Z,21.25
2022-08-20T13:52:02.096Z,20.89
2022-08-20T13:54:32.499Z,21.60
2022-08-20T13:57:06.806Z,21.62
2022-08-20T13:59:37.517Z,21.16
2022-08-20T14:02:07.396Z,22.41
2022-08-20T14:04:35.738Z,22.41
2022-08-20T14:07:11.253Z,21.55
2022-08-20T14:09:41.378Z,22.58
2022-08-20T14:12:10.301Z,21.85
2022-08-20T14:14:38.322Z,20.42
2022-08-20T14:17:18.161Z,20.89
2022-08-20T14:19:46.608Z,22.81
2022-08-20T14:22:17.317Z,24.65
2022-08-20T14:24:47.127Z,25.37
2022-08-20T14:27:16.441Z,26.96
2022-08-20T14:29:46.749Z,28.57
2022-08-20T14:32:14.662Z,30.25
2022-08-20T14:34:42.838Z,31.79
2022-08-20T14:37:12.818Z,33.20
2022-08-20T14:39:40.682Z,34.38
2022-08-20T14:42:10.003Z,35.04
2022-08-20T14:44:38.514Z,35.86
2022-08-20T14:47:24.929Z,36.21
2022-08-20T14:49:55.047Z,37.02
2022-08-20T14:52:24.459Z,37.78
2022-08-20T14:54:56.387Z,38.56
2022-08-20T14:57:25.670Z,38.61
2022-08-20T14:59:53.980Z,38.86
2022-08-20T15:02:22.189Z,37.46
2022-08-20T15:04:54.375Z,36.99
2022-08-20T15:07:26.017Z,34.99
2022-08-20T15:09:54.444Z,34.81
2022-08-20T15:12:22.434Z,33.62
2022-08-20T15:14:51.980Z,33.42
2022-08-20T15:17:22.865Z,33.29
2022-08-20T15:19:50.973Z,34.82
2022-08-20T15:22:19.966Z,35.97
2022-08-20T15:24:47.805Z,35.94
2022-08-20T15:27:22.297Z,35.88
2022-08-20T15:29:52.839Z,35.76
2022-08-20T15:32:21.633Z,36.46
2022-08-20T15:34:49.755Z,36.91
2022-08-20T15:37:20.019Z,36.69
2022-08-20T15:39:49.417Z,36.47
2022-08-20T15:42:17.600Z,35.94
2022-08-20T15:44:45.775Z,35.25
2022-08-20T15:47:22.291Z,35.76
2022-08-20T15:49:51.898Z,35.12
2022-08-20T15:52:19.919Z,35.96
2022-08-20T15:54:48.494Z,36.31
2022-08-20T15:57:38.804Z,36.92
2022-08-20T16:00:13.145Z,37.15
2022-08-20T16:03:06.855Z,36.36
2022-08-20T16:05:45.661Z,37.08
2022-08-20T16:08:32.863Z,36.76
2022-08-20T16:11:09.594Z,35.87
2022-08-20T16:13:40.305Z,36.10
2022-08-20T16:16:15.339Z,36.21
2022-08-20T16:18:49.024Z,36.28
2022-08-20T16:21:20.136Z,35.95
2022-08-20T16:23:47.955Z,36.63
2022-08-20T16:26:29.096Z,36.90
2022-08-20T16:29:10.000Z,36.45
2022-08-20T16:31:45.180Z,36.45
2022-08-20T16:34:32.866Z,36.63
2022-08-20T16:37:07.307Z,37.51
2022-08-20T16:39:43.783Z,36.99
2022-08-20T16:42:11.735Z,36.32
2022-08-20T16:44:43.381Z,36.79
2022-08-20T16:47:17.239Z,36.72
2022-08-20T16:49:50.966Z,36.96
2022-08-20T16:52:18.871Z,36.56
2022-08-20T16:54:46.681Z,36.66
2022-08-20T16:57:17.399Z,37.20
2022-08-20T16:59:57.908Z,37.65
2022-08-20T17:02:26.414Z,37.43
2022-08-20T17:04:59.051Z,37.96
2022-08-20T17:07:33.266Z,38.11
2022-08-20T17:10:12.650Z,38.15
2022-08-20T17:12:40.671Z,39.41
2022-08-20T17:15:09.373Z,39.71
2022-08-20T17:17:38.292Z,38.42
2022-08-20T17:20:16.361Z,38.52
2022-08-20T17:22:50.435Z,39.03
2022-08-20T17:25:20.615Z,38.78
2022-08-20T17:27:49.030Z,39.50
2022-08-20T17:30:24.748Z,39.94
2022-08-20T17:32:57.325Z,39.69
2022-08-20T17:35:31.674Z,39.39
2022-08-20T17:38:03.772Z,39.63
2022-08-20T17:40:35.792Z,39.89
2022-08-20T17:43:05.592Z,40.14
2022-08-20T17:45:38.912Z,40.60
2022-08-20T17:48:11.722Z,40.33
2022-08-20T17:50:42.626Z,40.47
2022-08-20T17:53:21.175Z,40.17
2022-08-20T17:55:54.349Z,40.09
2022-08-20T17:58:32.862Z,40.43
2022-08-20T18:01:02.174Z,39.44
2022-08-20T18:03:30.003Z,40.52
2022-08-20T18:06:06.993Z,40.68
2022-08-20T18:08:41.074Z,40.93
2022-08-20T18:11:18.216Z,40.98
2022-08-20T18:14:00.427Z,41.00
2022-08-20T18:16:31.857Z,40.81
2022-08-20T18:19:09.651Z,40.60
2022-08-20T18:22:02.364Z,41.14
2022-08-20T18:24:38.160Z,40.83
2022-08-20T18:27:11.590Z,40.55
2022-08-20T18:29:43.662Z,41.22
2022-08-20T18:32:30.286Z,41.78
2022-08-20T18:35:10.435Z,41.25
2022-08-20T18:37:40.431Z,41.65
2022-08-20T18:40:16.760Z,42.12
2022-08-20T18:42:45.367Z,42.03
2022-08-20T18:45:13.172Z,42.77
2022-08-20T18:47:45.681Z,42.03
2022-08-20T18:50:26.014Z,42.60
2022-08-20T18:53:16.714Z,42.66
2022-08-20T18:55:46.518Z,42.82
2022-08-20T18:58:16.930Z,42.77
2022-08-20T19:00:46.634Z,42.76
2022-08-20T19:03:20.156Z,43.01
2022-08-20T19:06:09.563Z,43.40
2022-08-20T19:08:49.878Z,43.49
2022-08-20T19:11:45.891Z,43.93
2022-08-20T19:14:45.001Z,44.45
2022-08-20T19:17:18.007Z,43.87
2022-08-20T19:19:45.717Z,44.15
2022-08-20T19:22:14.130Z,43.80
2022-08-20T19:24:44.361Z,45.13
2022-08-20T19:27:12.949Z,45.31
2022-08-20T19:29:47.167Z,46.17
2022-08-20T19:32:20.703Z,46.33
2022-08-20T19:34:52.286Z,46.01
2022-08-20T19:37:35.398Z,46.72
2022-08-20T19:40:26.508Z,47.40
2022-08-20T19:42:59.201Z,47.55
2022-08-20T19:45:30.953Z,47.62
2022-08-20T19:48:27.516Z,47.70
2022-08-20T19:51:07.351Z,47.95
2022-08-20T19:53:37.045Z,48.22
2022-08-20T19:56:10.958Z,48.36
2022-08-20T19:58:39.190Z,48.78
2022-08-20T20:01:16.394Z,48.52
2022-08-20T20:03:56.715Z,48.65
2022-08-20T20:06:25.731Z,48.70
2022-08-20T20:08:57.461Z,49.01
2022-08-20T20:11:32.073Z,50.00
2022-08-20T20:14:05.757Z,50.18
2022-08-20T20:16:35.288Z,50.66
2022-08-20T20:19:25.264Z,51.15
2022-08-20T20:22:05.193Z,51.44
2022-08-20T20:24:43.279Z,52.03
2022-08-20T20:27:20.174Z,52.30
2022-08-20T20:29:51.746Z,52.59
2022-08-20T20:32:22.644Z,52.91
2022-08-20T20:34:55.810Z,53.31
2022-08-20T20:37:46.631Z,53.57
2022-08-20T20:40:25.261Z,53.80
2022-08-20T20:43:02.349Z,54.01
2022-08-20T20:45:34.984Z,54.57
2022-08-20T20:48:15.715Z,54.92
2022-08-20T20:50:43.532Z,55.47
2022-08-20T20:53:11.134Z,55.65
2022-08-20T20:55:39.852Z,55.60
2022-08-20T20:58:08.955Z,56.04
2022-08-20T21:00:36.966Z,56.26
2022-08-20T21:03:04.495Z,56.73
2022-08-20T21:05:33.628Z,56.88
2022-08-20T21:08:03.827Z,56.94
2022-08-20T21:10:34.929Z,57.47
2022-08-20T21:13:03.863Z,57.25
2022-08-20T21:15:34.742Z,58.09
2022-08-20T21:18:04.680Z,58.59
2022-08-20T21:20:32.767Z,58.94
2022-08-20T21:23:00.851Z,58.91
2022-08-20T21:25:30.572Z,59.17
2022-08-20T21:27:58.482Z,59.38
2022-08-20T21:30:27.215Z,59.57
2022-08-20T21:32:56.514Z,59.49
2022-08-20T21:35:24.338Z,59.68
2022-08-20T21:37:52.426Z,60.06
2022-08-20T21:40:21.807Z,60.39
2022-08-20T21:42:50.257Z,60.54
2022-08-20T21:45:20.270Z,60.53
2022-08-20T21:47:49.114Z,60.99
2022-08-20T21:50:20.122Z,60.78
2022-08-20T21:52:55.320Z,61.44
2022-08-20T21:55:30.117Z,62.06
2022-08-20T21:57:58.636Z,62.06
2022-08-20T22:00:47.634Z,62.36
2022-08-20T22:03:16.444Z,62.58
2022-08-20T22:05:50.352Z,63.16
2022-08-20T22:08:19.185Z,63.47
2022-08-20T22:10:47.189Z,63.42
2022-08-20T22:13:16.283Z,63.76
2022-08-20T22:15:44.042Z,64.07
2022-08-20T22:18:11.606Z,64.16
2022-08-20T22:20:40.139Z,64.22
2022-08-20T22:23:09.429Z,64.52
2022-08-20T22:25:37.336Z,64.50
2022-08-20T22:28:05.649Z,64.85
2022-08-20T22:30:33.463Z,64.81
2022-08-20T22:33:02.004Z,65.13
2022-08-20T22:35:30.283Z,65.31
2022-08-20T22:37:59.090Z,65.60
2022-08-20T22:40:28.300Z,65.82
2022-08-20T22:42:56.314Z,65.81
2022-08-20T22:45:24.224Z,65.69
2022-08-20T22:47:52.043Z,66.24
2022-08-20T22:50:22.444Z,66.58
2022-08-20T22:52:50.060Z,66.80
2022-08-20T22:55:18.065Z,66.61
2022-08-20T22:57:49.277Z,66.63
2022-08-20T23:00:19.796Z,66.73
2022-08-20T23:02:52.700Z,66.47
2022-08-20T23:05:23.826Z,66.70
2022-08-20T23:07:54.095Z,66.61
2022-08-20T23:10:22.657Z,66.86
2022-08-20T23:12:51.880Z,66.76
2022-08-20T23:15:20.753Z,66.80
2022-08-20T23:17:48.568Z,66.79
2022-08-20T23:20:17.792Z,66.86
2022-08-20T23:22:45.790Z,67.06
2022-08-20T23:25:14.098Z,67.21
2022-08-20T23:27:45.699Z,67.42
2022-08-20T23:30:18.293Z,67.65
2022-08-20T23:32:46.238Z,67.70
2022-08-20T23:35:14.561Z,67.48
2022-08-20T23:37:44.456Z,67.80
2022-08-20T23:40:13.686Z,68.42
2022-08-20T23:42:41.483Z,68.47
2022-08-20T23:45:10.486Z,68.45
2022-08-20T23:47:39.797Z,68.26
2022-08-20T23:50:10.922Z,68.22
2022-08-20T23:52:38.660Z,68.43
2022-08-20T23:55:07.672Z,68.44
2022-08-20T23:57:35.856Z,68.71
